createdAt,value
2022-09-02T00:01:00.804Z,59.30
2022-09-02T00:04:11.843Z,59.30
2022-09-02T00:07:19.284Z,59.30
2022-09-02T00:10:26.606Z,59.20
2022-09-02T00:13:34.114Z,59.10
2022-09-02T00:16:45.490Z,59.20
2022-09-02T00:19:56.230Z,59.20
2022-09-02T00:23:04.056Z,59.20
2022-09-02T00:26:11.901Z,59.20
2022-09-02T00:29:20.063Z,59.10
2022-09-02T00:32:31.500Z,59.10
2022-09-02T00:35:39.459Z,59.10
2022-09-02T00:38:47.026Z,59.10
2022-09-02T00:41:54.410Z,59.10
2022-09-02T00:45:02.701Z,59.10
2022-09-02T00:48:13.070Z,59.10
2022-09-02T00:51:20.887Z,59.30
2022-09-02T00:54:31.087Z,59.40
2022-09-02T00:57:42.883Z,59.30
2022-09-02T01:00:56.993Z,59.30
2022-09-02T01:04:07.505Z,59.20
2022-09-02T01:07:16.513Z,59.20
2022-09-02T01:10:26.421Z,59.10
2022-09-02T01:13:34.938Z,59.30
2022-09-02T01:16:45.895Z,59.20
2022-09-02T01:20:03.417Z,59.30
2022-09-02T01:23:16.576Z,59.30
2022-09-02T01:26:24.260Z,59.30
2022-09-02T01:30:07.426Z,59.40
2022-09-02T01:33:18.371Z,59.40
2022-09-02T01:36:28.731Z,59.30
2022-09-02T01:39:42.058Z,59.40
2022-09-02T01:42:51.616Z,59.30
2022-09-02T01:46:01.384Z,59.30
2022-09-02T01:49:09.196Z,59.30
2022-09-02T01:52:18.510Z,59.30
2022-09-02T01:55:28.998Z,59.30
2022-09-02T01:58:36.523Z,59.30
2022-09-02T02:01:43.999Z,59.30
2022-09-02T02:04:52.517Z,59.30
2022-09-02T02:08:00.373Z,59.40
2022-09-02T02:11:10.577Z,59.40
2022-09-02T02:14:18.978Z,59.40
2022-09-02T02:17:29.622Z,59.40
2022-09-02T02:20:39.931Z,59.50
2022-09-02T02:23:50.480Z,59.60
2022-09-02T02:27:01.084Z,59.50
2022-09-02T02:30:10.680Z,59.50
2022-09-02T02:33:18.434Z,59.50
2022-09-02T02:36:29.068Z,59.40
2022-09-02T02:39:36.720Z,59.40
2022-09-02T02:42:46.786Z,59.30
2022-09-02T02:45:54.547Z,59.40
2022-09-02T02:49:03.504Z,59.40
2022-09-02T02:52:11.504Z,59.50
2022-09-02T02:55:20.654Z,59.50
2022-09-02T02:58:31.644Z,59.50
2022-09-02T03:01:39.270Z,59.50
2022-09-02T03:04:46.651Z,59.60
2022-09-02T03:07:54.125Z,59.60
2022-09-02T03:11:02.148Z,59.60
2022-09-02T03:14:12.381Z,59.50
2022-09-02T03:17:20.041Z,59.60
2022-09-02T03:20:28.243Z,59.70
2022-09-02T03:23:36.861Z,59.70
2022-09-02T03:26:45.856Z,59.70
2022-09-02T03:29:59.377Z,59.70
2022-09-02T03:33:08.448Z,59.60
2022-09-02T03:36:23.703Z,59.70
2022-09-02T03:39:31.168Z,59.70
2022-09-02T03:42:38.752Z,59.70
2022-09-02T03:45:50.695Z,59.60
2022-09-02T03:48:58.236Z,59.60
2022-09-02T03:52:06.744Z,59.70
2022-09-02T03:55:15.119Z,59.70
2022-09-02T03:58:23.153Z,59.70
2022-09-02T04:01:35.116Z,59.70
2022-09-02T04:04:42.824Z,59.70
2022-09-02T04:07:51.583Z,59.80
2022-09-02T04:11:00.627Z,59.70
2022-09-02T04:14:08.190Z,59.70
2022-09-02T04:17:18.463Z,59.80
2022-09-02T04:20:26.414Z,59.80
2022-09-02T04:23:34.400Z,59.70
2022-09-02T04:26:44.849Z,59.70
2022-09-02T04:29:52.976Z,59.70
2022-09-02T04:33:03.094Z,59.80
2022-09-02T04:36:12.767Z,59.80
2022-09-02T04:39:22.406Z,59.70
2022-09-02T04:42:29.795Z,59.80
2022-09-02T04:45:37.160Z,59.90
2022-09-02T04:48:47.546Z,59.80
2022-09-02T04:51:54.913Z,59.80
2022-09-02T04:55:02.194Z,59.90
2022-09-02T04:58:09.717Z,59.80
2022-09-02T05:01:21.338Z,59.80
2022-09-02T05:04:31.933Z,60.00
2022-09-02T05:07:39.806Z,59.90
2022-09-02T05:10:50.748Z,59.90
2022-09-02T05:14:00.123Z,59.90
2022-09-02T05:17:08.094Z,59.90
2022-09-02T05:20:18.807Z,59.90
2022-09-02T05:23:26.317Z,59.80
2022-09-02T05:26:36.358Z,59.70
2022-09-02T05:29:45.588Z,59.70
2022-09-02T05:32:53.227Z,59.80
2022-09-02T05:36:06.458Z,59.70
2022-09-02T05:39:14.110Z,59.80
2022-09-02T05:42:22.697Z,59.80
2022-09-02T05:45:30.141Z,59.80
2022-09-02T05:49:08.708Z,59.80
2022-09-02T05:52:19.200Z,59.80
2022-09-02T05:55:26.745Z,59.80
2022-09-02T05:58:34.591Z,59.80
2022-09-02T06:01:42.348Z,59.80
2022-09-02T06:04:52.495Z,59.90
2022-09-02T06:08:06.231Z,59.80
2022-09-02T06:11:15.212Z,59.90
2022-09-02T06:14:25.663Z,59.90
2022-09-02T06:17:33.122Z,60.00
2022-09-02T06:20:43.929Z,59.90
2022-09-02T06:23:54.325Z,59.90
2022-09-02T06:27:02.125Z,60.00
2022-09-02T06:30:10.674Z,60.00
2022-09-02T06:33:18.291Z,60.10
2022-09-02T06:36:28.251Z,60.10
2022-09-02T06:39:44.031Z,60.00
2022-09-02T06:42:51.379Z,59.90
2022-09-02T06:45:58.938Z,60.00
2022-09-02T06:49:07.931Z,59.90
2022-09-02T06:52:17.165Z,59.90
2022-09-02T06:55:27.421Z,59.90
2022-09-02T06:58:34.979Z,59.80
2022-09-02T07:01:42.718Z,59.80
2022-09-02T07:05:07.605Z,59.90
2022-09-02T07:08:15.334Z,59.80
2022-09-02T07:11:28.103Z,59.90
2022-09-02T07:14:39.481Z,60.00
2022-09-02T07:17:47.317Z,60.00
2022-09-02T07:20:54.937Z,60.00
2022-09-02T07:24:02.832Z,60.00
2022-09-02T07:27:13.292Z,60.00
2022-09-02T07:30:21.471Z,60.00
2022-09-02T07:33:28.897Z,59.90
2022-09-02T07:36:37.642Z,59.90
2022-09-02T07:39:45.700Z,60.00
2022-09-02T07:46:09.341Z,60.00
2022-09-02T07:49:23.344Z,60.00
2022-09-02T07:52:31.485Z,60.10
2022-09-02T07:55:41.759Z,60.10
2022-09-02T07:58:52.256Z,60.20
2022-09-02T08:02:00.198Z,60.10
2022-09-02T08:05:08.369Z,60.10
2022-09-02T08:08:17.344Z,60.10
2022-09-02T08:11:25.737Z,60.10
2022-09-02T08:14:36.491Z,60.40
2022-09-02T08:17:44.534Z,60.10
2022-09-02T08:20:51.850Z,60.10
2022-09-02T08:24:00.606Z,60.00
2022-09-02T08:27:08.782Z,60.10
2022-09-02T08:30:19.065Z,60.10
2022-09-02T08:33:26.531Z,60.00
2022-09-02T08:36:34.795Z,60.30
2022-09-02T08:39:42.736Z,60.20
2022-09-02T08:42:52.698Z,60.10
2022-09-02T08:46:05.769Z,60.20
2022-09-02T08:49:20.459Z,60.20
2022-09-02T08:52:34.367Z,60.30
2022-09-02T08:55:49.411Z,60.20
2022-09-02T08:58:57.217Z,60.30
2022-09-02T09:02:17.699Z,60.30
2022-09-02T09:05:34.108Z,60.20
2022-09-02T09:08:50.569Z,60.30
2022-09-02T09:12:07.583Z,60.10
2022-09-02T09:15:22.138Z,60.10
2022-09-02T09:18:39.878Z,60.20
2022-09-02T09:21:48.057Z,60.30
2022-09-02T09:24:55.687Z,60.20
2022-09-02T09:28:04.238Z,60.00
2022-09-02T09:31:19.012Z,60.00
2022-09-02T09:35:01.822Z,60.00
2022-09-02T09:38:16.835Z,60.10
2022-09-02T09:41:29.337Z,60.20
2022-09-02T09:44:46.523Z,60.10
2022-09-02T09:48:27.975Z,60.10
2022-09-02T09:51:49.836Z,60.60
2022-09-02T09:55:24.785Z,61.00
2022-09-02T09:58:37.361Z,61.20
2022-09-02T10:01:54.410Z,61.50
2022-09-02T10:05:14.935Z,61.40
2022-09-02T10:08:28.695Z,61.30
2022-09-02T10:11:38.129Z,61.40
2022-09-02T10:14:48.550Z,61.50
2022-09-02T10:18:04.269Z,61.40
2022-09-02T10:21:20.617Z,61.40
2022-09-02T10:25:04.615Z,61.40
2022-09-02T10:28:23.050Z,61.30
2022-09-02T10:31:38.509Z,61.20
2022-09-02T10:34:57.605Z,61.20
2022-09-02T10:38:20.399Z,61.10
2022-09-02T10:45:14.876Z,61.00
2022-09-02T10:48:43.926Z,61.00
2022-09-02T10:52:01.621Z,61.00
2022-09-02T10:55:20.130Z,61.00
2022-09-02T10:58:46.945Z,60.90
2022-09-02T11:02:00.220Z,60.80
2022-09-02T11:05:15.943Z,60.80
2022-09-02T11:08:31.649Z,60.80
2022-09-02T11:11:44.078Z,60.80
2022-09-02T11:15:05.395Z,60.80
2022-09-02T11:18:22.115Z,60.70
2022-09-02T11:21:39.508Z,60.60
2022-09-02T11:24:55.249Z,60.70
2022-09-02T11:28:09.270Z,60.70
2022-09-02T11:31:28.376Z,60.70
2022-09-02T11:34:42.357Z,60.70
2022-09-02T11:37:53.491Z,60.60
2022-09-02T11:41:35.918Z,60.60
2022-09-02T11:45:17.968Z,60.60
2022-09-02T11:48:58.343Z,60.50
2022-09-02T11:52:23.419Z,60.60
2022-09-02T11:55:36.413Z,60.90
2022-09-02T11:58:48.458Z,60.90
2022-09-02T12:01:56.309Z,60.80
2022-09-02T12:05:37.624Z,60.70
2022-09-02T12:09:15.288Z,60.70
2022-09-02T12:13:01.200Z,60.60
2022-09-02T12:16:40.013Z,60.60
2022-09-02T12:19:52.639Z,60.60
2022-09-02T12:23:00.324Z,60.60
2022-09-02T12:26:15.880Z,60.50
2022-09-02T12:29:35.125Z,60.40
2022-09-02T12:33:10.062Z,60.30
2022-09-02T12:36:48.231Z,60.30
2022-09-02T12:40:00.175Z,60.40
2022-09-02T12:43:26.473Z,60.40
2022-09-02T12:46:54.696Z,60.30
2022-09-02T12:50:08.227Z,60.30
2022-09-02T12:53:35.570Z,60.30
2022-09-02T12:56:51.401Z,60.40
2022-09-02T13:00:03.334Z,60.40
2022-09-02T13:03:31.171Z,60.30
2022-09-02T13:06:56.957Z,60.40
2022-09-02T13:10:43.534Z,60.30
2022-09-02T13:14:26.149Z,60.30
2022-09-02T13:17:50.995Z,60.30
2022-09-02T13:21:31.938Z,60.30
2022-09-02T13:25:18.942Z,60.30
2022-09-02T13:28:51.175Z,60.30
2022-09-02T13:32:17.245Z,60.30
2022-09-02T13:35:29.531Z,60.20
2022-09-02T13:38:41.618Z,60.20
2022-09-02T13:41:49.812Z,60.20
2022-09-02T13:45:13.114Z,60.20
2022-09-02T13:48:22.954Z,60.20
2022-09-02T13:51:32.957Z,60.10
2022-09-02T13:54:42.316Z,60.10
2022-09-02T13:57:56.304Z,60.10
2022-09-02T14:01:23.211Z,60.20
2022-09-02T14:04:33.667Z,60.20
2022-09-02T14:07:46.934Z,60.10
2022-09-02T14:10:54.871Z,60.10
2022-09-02T14:14:03.342Z,60.10
2022-09-02T14:17:26.569Z,60.00
2022-09-02T14:20:34.198Z,60.00
2022-09-02T14:23:52.636Z,60.00
2022-09-02T14:27:01.442Z,59.90
2022-09-02T14:30:11.452Z,59.90
2022-09-02T14:33:27.607Z,59.90
2022-09-02T14:36:37.921Z,60.00
2022-09-02T14:40:06.720Z,59.90
2022-09-02T14:43:17.782Z,59.90
2022-09-02T14:46:34.211Z,59.90
2022-09-02T14:49:48.514Z,59.90
2022-09-02T14:53:03.954Z,59.90
2022-09-02T14:56:14.303Z,59.90
2022-09-02T14:59:22.657Z,59.90
2022-09-02T15:02:36.048Z,59.90
2022-09-02T15:05:43.548Z,59.90
2022-09-02T15:08:51.006Z,59.90
2022-09-02T15:12:02.901Z,59.90
2022-09-02T15:15:11.277Z,59.90
2022-09-02T15:18:18.589Z,59.90
2022-09-02T15:21:26.297Z,59.90
2022-09-02T15:24:33.544Z,59.90
2022-09-02T15:27:43.651Z,59.90
2022-09-02T15:30:50.988Z,59.90
2022-09-02T15:33:59.229Z,59.90
2022-09-02T15:37:12.153Z,59.90
2022-09-02T15:40:20.914Z,59.90
2022-09-02T15:43:31.318Z,59.90
2022-09-02T15:46:40.454Z,59.90
2022-09-02T15:49:47.950Z,59.90
2022-09-02T15:52:56.140Z,59.80
2022-09-02T15:56:03.611Z,59.80
2022-09-02T15:59:16.541Z,59.80
2022-09-02T16:02:23.908Z,59.80
2022-09-02T16:05:32.667Z,59.90
2022-09-02T16:08:40.831Z,59.90
2022-09-02T16:11:50.213Z,59.90
2022-09-02T16:15:00.276Z,59.90
2022-09-02T16:18:07.702Z,59.90
2022-09-02T16:21:15.972Z,59.90
2022-09-02T16:24:23.769Z,59.90
2022-09-02T16:27:47.312Z,59.90
2022-09-02T16:30:57.863Z,59.90
2022-09-02T16:34:08.679Z,60.00
2022-09-02T16:37:15.974Z,60.00
2022-09-02T16:40:24.228Z,60.00
2022-09-02T16:43:34.286Z,60.10
2022-09-02T16:46:48.683Z,60.10
2022-09-02T16:49:56.398Z,60.10
2022-09-02T16:53:03.880Z,60.00
2022-09-02T16:56:15.788Z,60.10
2022-09-02T16:59:23.253Z,60.10
2022-09-02T17:02:33.439Z,60.10
2022-09-02T17:05:41.083Z,60.10
2022-09-02T17:08:49.385Z,60.10
2022-09-02T17:11:56.769Z,60.10
2022-09-02T17:15:04.172Z,60.10
2022-09-02T17:18:14.275Z,60.10
2022-09-02T17:21:29.511Z,60.10
2022-09-02T17:24:38.443Z,60.10
2022-09-02T17:27:44.506Z,60.10
2022-09-02T17:30:51.996Z,60.20
2022-09-02T17:34:04.657Z,60.20
2022-09-02T17:37:12.245Z,60.20
2022-09-02T17:40:35.688Z,60.20
2022-09-02T17:43:44.968Z,60.20
2022-09-02T17:46:53.554Z,60.20
2022-09-02T17:50:05.751Z,60.20
2022-09-02T17:53:11.298Z,60.20
2022-09-02T17:56:46.399Z,60.20
2022-09-02T18:00:08.449Z,60.30
2022-09-02T18:03:44.502Z,60.30
2022-09-02T18:07:01.165Z,60.30
2022-09-02T18:10:09.135Z,60.30
2022-09-02T18:13:22.079Z,60.40
2022-09-02T18:16:37.077Z,60.40
2022-09-02T18:20:06.202Z,60.30
2022-09-02T18:23:34.964Z,60.40
2022-09-02T18:26:57.735Z,60.40
2022-09-02T18:30:11.065Z,60.40
2022-09-02T18:33:50.744Z,60.40
2022-09-02T18:37:08.045Z,60.40
2022-09-02T18:40:30.700Z,60.50
2022-09-02T18:43:45.528Z,60.50
2022-09-02T18:46:59.380Z,60.50
2022-09-02T18:50:22.134Z,60.50
2022-09-02T18:53:43.103Z,60.50
2022-09-02T18:56:59.228Z,60.50
2022-09-02T19:00:10.900Z,60.50
2022-09-02T19:03:18.218Z,60.50
2022-09-02T19:06:29.118Z,60.50
2022-09-02T19:09:33.869Z,60.50
2022-09-02T19:12:44.432Z,60.50
2022-09-02T19:15:55.924Z,60.50
2022-09-02T19:19:11.604Z,60.50
2022-09-02T19:22:24.832Z,60.50
2022-09-02T19:25:33.918Z,60.70
2022-09-02T19:28:45.408Z,60.50
2022-09-02T19:31:54.848Z,60.60
2022-09-02T19:35:04.641Z,60.60
2022-09-02T19:38:15.609Z,60.70
2022-09-02T19:41:24.379Z,60.80
2022-09-02T19:44:34.612Z,61.10
2022-09-02T19:48:06.191Z,61.20
2022-09-02T19:51:16.355Z,61.00
2022-09-02T19:54:26.779Z,61.30
2022-09-02T19:57:34.904Z,61.40
2022-09-02T20:00:48.176Z,61.40
2022-09-02T20:03:55.951Z,61.40
2022-09-02T20:07:06.286Z,61.50
2022-09-02T20:10:14.540Z,61.40
2022-09-02T20:13:30.050Z,61.40
2022-09-02T20:16:40.404Z,61.40
2022-09-02T20:19:48.198Z,61.40
2022-09-02T20:22:59.550Z,61.40
2022-09-02T20:26:23.993Z,61.40
2022-09-02T20:29:48.017Z,61.40
2022-09-02T20:33:04.533Z,61.50
2022-09-02T20:36:22.570Z,61.50
2022-09-02T20:39:49.208Z,61.50
2022-09-02T20:43:25.682Z,61.50
2022-09-02T20:46:48.327Z,61.50
2022-09-02T20:50:34.592Z,61.60
2022-09-02T20:54:01.325Z,61.50
2022-09-02T20:57:25.762Z,61.60
2022-09-02T21:00:33.355Z,61.60
2022-09-02T21:03:52.631Z,61.60
2022-09-02T21:07:09.404Z,61.60
2022-09-02T21:10:24.210Z,61.70
2022-09-02T21:13:41.827Z,61.60
2022-09-02T21:16:54.671Z,61.60
2022-09-02T21:20:11.816Z,61.60
2022-09-02T21:23:28.681Z,61.60
2022-09-02T21:26:44.386Z,61.60
2022-09-02T21:30:02.614Z,61.60
2022-09-02T21:33:13.548Z,61.60
2022-09-02T21:36:26.487Z,61.60
2022-09-02T21:39:42.670Z,61.70
2022-09-02T21:43:09.535Z,61.80
2022-09-02T21:46:28.873Z,61.80
2022-09-02T21:49:50.744Z,61.70
2022-09-02T21:53:13.025Z,61.70
2022-09-02T21:56:37.538Z,61.80
2022-09-02T21:59:55.818Z,61.70
2022-09-02T22:03:08.184Z,61.80
2022-09-02T22:06:25.703Z,61.80
2022-09-02T22:09:35.077Z,61.90
2022-09-02T22:12:52.373Z,61.80
2022-09-02T22:16:06.279Z,61.70
2022-09-02T22:19:13.904Z,61.70
2022-09-02T22:22:24.818Z,61.70
2022-09-02T22:25:34.011Z,61.60
2022-09-02T22:28:49.374Z,61.60
2022-09-02T22:32:01.857Z,61.70
2022-09-02T22:35:16.398Z,61.70
2022-09-02T22:38:28.268Z,61.60
2022-09-02T22:41:55.787Z,61.60
2022-09-02T22:45:27.534Z,61.70
2022-09-02T22:48:57.012Z,61.50
2022-09-02T22:52:26.984Z,61.60
2022-09-02T22:55:54.605Z,61.50
2022-09-02T22:59:19.088Z,61.50
2022-09-02T23:02:34.576Z,61.60
2022-09-02T23:05:53.360Z,61.50
2022-09-02T23:09:05.970Z,61.60
2022-09-02T23:12:27.137Z,61.50
2022-09-02T23:15:44.608Z,61.60
2022-09-02T23:19:12.195Z,61.50
2022-09-02T23:22:34.659Z,61.60
2022-09-02T23:26:10.258Z,61.50
2022-09-02T23:29:23.571Z,61.50
2022-09-02T23:32:57.149Z,61.70
2022-09-02T23:36:14.194Z,61.60
2022-09-02T23:39:35.983Z,61.60
2022-09-02T23:42:43.791Z,61.60
2022-09-02T23:45:51.644Z,61.60
2022-09-02T23:49:08.532Z,61.60
2022-09-02T23:52:28.367Z,61.60
2022-09-02T23:55:41.542Z,61.60
2022-09-02T23:59:10.507Z,61.40
